sensor_id;sensor_type;location;lat;lon;timestamp;temperature;humidity
9949;DHT22;5013;51.840;8.276;2023-11-18T00:02:23;2.70;99.90
9949;DHT22;5013;51.840;8.276;2023-11-18T00:04:50;2.70;1.00
9949;DHT22;5013;51.840;8.276;2023-11-18T00:07:16;2.70;1.00
9949;DHT22;5013;51.840;8.276;2023-11-18T00:09:42;2.70;1.00
9949;DHT22;5013;51.840;8.276;2023-11-18T00:12:11;2.60;1.00
9949;DHT22;5013;51.840;8.276;2023-11-18T00:14:37;2.60;1.00
9949;DHT22;5013;51.840;8.276;2023-11-18T00:17:03;2.50;1.00
9949;DHT22;5013;51.840;8.276;2023-11-18T00:19:29;2.50;1.00
9949;DHT22;5013;51.840;8.276;2023-11-18T00:21:55;2.50;1.00
9949;DHT22;5013;51.840;8.276;2023-11-18T00:24:21;2.50;1.00
9949;DHT22;5013;51.840;8.276;2023-11-18T00:26:46;2.50;21.30
9949;DHT22;5013;51.840;8.276;2023-11-18T00:29:12;2.50;1.00
9949;DHT22;5013;51.840;8.276;2023-11-18T00:31:38;2.60;42.10
9949;DHT22;5013;51.840;8.276;2023-11-18T00:34:03;2.50;16.70
9949;DHT22;5013;51.840;8.276;2023-11-18T00:36:29;2.50;1.00
9949;DHT22;5013;51.840;8.276;2023-11-18T00:38:55;2.40;1.00
9949;DHT22;5013;51.840;8.276;2023-11-18T00:41:20;2.40;20.60
9949;DHT22;5013;51.840;8.276;2023-11-18T00:43:46;2.40;13.40
9949;DHT22;5013;51.840;8.276;2023-11-18T00:46:12;2.40;79.30
9949;DHT22;5013;51.840;8.276;2023-11-18T00:48:38;2.50;99.90
9949;DHT22;5013;51.840;8.276;2023-11-18T00:51:07;2.40;32.20
9949;DHT22;5013;51.840;8.276;2023-11-18T00:53:33;2.30;46.60
9949;DHT22;5013;51.840;8.276;2023-11-18T00:55:58;2.30;88.10
9949;DHT22;5013;51.840;8.276;2023-11-18T00:58:24;2.30;99.90
9949;DHT22;5013;51.840;8.276;2023-11-18T01:00:49;2.30;72.50
9949;DHT22;5013;51.840;8.276;2023-11-18T01:03:15;2.20;89.60
9949;DHT22;5013;51.840;8.276;2023-11-18T01:05:40;2.20;88.80
9949;DHT22;5013;51.840;8.276;2023-11-18T01:08:06;2.10;87.20
9949;DHT22;5013;51.840;8.276;2023-11-18T01:10:31;2.10;95.30
9949;DHT22;5013;51.840;8.276;2023-11-18T01:12:57;2.10;99.90
9949;DHT22;5013;51.840;8.276;2023-11-18T01:15:23;2.10;52.10
9949;DHT22;5013;51.840;8.276;2023-11-18T01:17:49;2.10;43.50
9949;DHT22;5013;51.840;8.276;2023-11-18T01:20:15;2.10;1.00
9949;DHT22;5013;51.840;8.276;2023-11-18T01:22:46;2.10;1.00
9949;DHT22;5013;51.840;8.276;2023-11-18T01:25:12;2.00;1.00
9949;DHT22;5013;51.840;8.276;2023-11-18T01:27:38;1.90;1.00
9949;DHT22;5013;51.840;8.276;2023-11-18T01:30:05;1.80;1.00
9949;DHT22;5013;51.840;8.276;2023-11-18T01:32:31;1.90;1.00
9949;DHT22;5013;51.840;8.276;2023-11-18T01:34:57;1.80;1.00
9949;DHT22;5013;51.840;8.276;2023-11-18T01:37:23;1.90;1.00
9949;DHT22;5013;51.840;8.276;2023-11-18T01:39:49;1.80;1.00
9949;DHT22;5013;51.840;8.276;2023-11-18T01:42:15;1.70;1.00
9949;DHT22;5013;51.840;8.276;2023-11-18T01:44:41;1.60;1.00
9949;DHT22;5013;51.840;8.276;2023-11-18T01:47:08;1.60;1.00
9949;DHT22;5013;51.840;8.276;2023-11-18T01:49:37;1.50;1.00
9949;DHT22;5013;51.840;8.276;2023-11-18T01:52:05;1.50;1.00
9949;DHT22;5013;51.840;8.276;2023-11-18T01:54:34;1.50;1.00
9949;DHT22;5013;51.840;8.276;2023-11-18T01:57:00;1.50;1.00
9949;DHT22;5013;51.840;8.276;2023-11-18T01:59:32;1.50;1.00
9949;DHT22;5013;51.840;8.276;2023-11-18T02:01:59;1.40;1.00
9949;DHT22;5013;51.840;8.276;2023-11-18T02:04:25;1.50;1.00
9949;DHT22;5013;51.840;8.276;2023-11-18T02:06:52;1.50;1.00
9949;DHT22;5013;51.840;8.276;2023-11-18T02:09:19;1.60;1.00
9949;DHT22;5013;51.840;8.276;2023-11-18T02:11:52;1.60;1.00
9949;DHT22;5013;51.840;8.276;2023-11-18T02:14:20;1.70;1.00
9949;DHT22;5013;51.840;8.276;2023-11-18T02:16:49;1.70;1.00
9949;DHT22;5013;51.840;8.276;2023-11-18T02:19:23;1.70;1.00
9949;DHT22;5013;51.840;8.276;2023-11-18T02:21:50;1.70;1.00
9949;DHT22;5013;51.840;8.276;2023-11-18T02:24:29;1.70;1.00
9949;DHT22;5013;51.840;8.276;2023-11-18T02:27:06;1.70;1.00
9949;DHT22;5013;51.840;8.276;2023-11-18T02:29:38;1.60;1.00
9949;DHT22;5013;51.840;8.276;2023-11-18T02:34:34;1.60;1.00
9949;DHT22;5013;51.840;8.276;2023-11-18T02:37:05;1.50;1.00
9949;DHT22;5013;51.840;8.276;2023-11-18T02:39:43;1.60;1.00
9949;DHT22;5013;51.840;8.276;2023-11-18T02:42:12;1.50;1.00
9949;DHT22;5013;51.840;8.276;2023-11-18T02:44:38;1.60;1.00
9949;DHT22;5013;51.840;8.276;2023-11-18T02:47:05;1.50;1.00
9949;DHT22;5013;51.840;8.276;2023-11-18T02:49:32;1.60;1.00
9949;DHT22;5013;51.840;8.276;2023-11-18T02:51:57;1.50;1.00
9949;DHT22;5013;51.840;8.276;2023-11-18T02:54:23;1.50;1.00
9949;DHT22;5013;51.840;8.276;2023-11-18T02:56:49;1.50;1.00
9949;DHT22;5013;51.840;8.276;2023-11-18T02:59:16;1.50;1.00
9949;DHT22;5013;51.840;8.276;2023-11-18T03:01:41;1.40;1.00
9949;DHT22;5013;51.840;8.276;2023-11-18T03:04:07;1.40;1.00
9949;DHT22;5013;51.840;8.276;2023-11-18T03:06:34;1.40;1.00
9949;DHT22;5013;51.840;8.276;2023-11-18T03:09:01;1.40;1.00
9949;DHT22;5013;51.840;8.276;2023-11-18T03:11:26;1.40;1.00
9949;DHT22;5013;51.840;8.276;2023-11-18T03:13:55;1.50;1.00
9949;DHT22;5013;51.840;8.276;2023-11-18T03:16:22;1.50;1.00
9949;DHT22;5013;51.840;8.276;2023-11-18T03:18:47;1.50;1.00
9949;DHT22;5013;51.840;8.276;2023-11-18T03:21:14;1.50;1.00
9949;DHT22;5013;51.840;8.276;2023-11-18T03:23:40;1.50;1.00
9949;DHT22;5013;51.840;8.276;2023-11-18T03:26:07;1.50;1.00
9949;DHT22;5013;51.840;8.276;2023-11-18T03:28:33;1.50;1.00
9949;DHT22;5013;51.840;8.276;2023-11-18T03:30:59;1.50;1.00
9949;DHT22;5013;51.840;8.276;2023-11-18T03:33:24;1.50;1.00
9949;DHT22;5013;51.840;8.276;2023-11-18T03:35:50;1.40;1.00
9949;DHT22;5013;51.840;8.276;2023-11-18T03:38:16;1.40;1.00
9949;DHT22;5013;51.840;8.276;2023-11-18T03:40:43;1.40;1.00
9949;DHT22;5013;51.840;8.276;2023-11-18T03:43:10;1.40;1.00
9949;DHT22;5013;51.840;8.276;2023-11-18T03:45:38;1.30;1.00
9949;DHT22;5013;51.840;8.276;2023-11-18T03:48:04;1.30;1.00
9949;DHT22;5013;51.840;8.276;2023-11-18T03:50:30;1.40;1.00
9949;DHT22;5013;51.840;8.276;2023-11-18T03:52:55;1.30;1.00
9949;DHT22;5013;51.840;8.276;2023-11-18T03:55:21;1.30;1.00
9949;DHT22;5013;51.840;8.276;2023-11-18T03:57:47;1.30;1.00
9949;DHT22;5013;51.840;8.276;2023-11-18T04:00:15;1.30;1.00
9949;DHT22;5013;51.840;8.276;2023-11-18T04:02:41;1.30;1.00
9949;DHT22;5013;51.840;8.276;2023-11-18T04:05:07;1.30;1.00
9949;DHT22;5013;51.840;8.276;2023-11-18T04:07:34;1.30;1.00
9949;DHT22;5013;51.840;8.276;2023-11-18T04:09:59;1.20;99.90
9949;DHT22;5013;51.840;8.276;2023-11-18T04:12:25;1.20;99.90
9949;DHT22;5013;51.840;8.276;2023-11-18T04:14:52;1.20;1.00
9949;DHT22;5013;51.840;8.276;2023-11-18T04:17:18;1.20;99.90
9949;DHT22;5013;51.840;8.276;2023-11-18T04:19:44;1.20;99.90
9949;DHT22;5013;51.840;8.276;2023-11-18T04:22:10;1.20;99.90
9949;DHT22;5013;51.840;8.276;2023-11-18T04:24:36;1.10;99.90
9949;DHT22;5013;51.840;8.276;2023-11-18T04:27:02;1.10;71.40
9949;DHT22;5013;51.840;8.276;2023-11-18T04:29:28;1.00;25.70
9949;DHT22;5013;51.840;8.276;2023-11-18T04:31:53;1.10;99.90
9949;DHT22;5013;51.840;8.276;2023-11-18T04:34:20;1.20;99.90
9949;DHT22;5013;51.840;8.276;2023-11-18T04:36:45;1.10;99.90
9949;DHT22;5013;51.840;8.276;2023-11-18T04:39:11;1.10;99.90
9949;DHT22;5013;51.840;8.276;2023-11-18T04:41:37;1.10;99.90
9949;DHT22;5013;51.840;8.276;2023-11-18T04:44:03;1.10;99.90
9949;DHT22;5013;51.840;8.276;2023-11-18T04:46:29;1.20;99.90
9949;DHT22;5013;51.840;8.276;2023-11-18T04:48:55;1.20;99.90
9949;DHT22;5013;51.840;8.276;2023-11-18T04:51:21;1.20;99.90
9949;DHT22;5013;51.840;8.276;2023-11-18T04:53:48;1.20;99.90
9949;DHT22;5013;51.840;8.276;2023-11-18T04:56:14;1.10;1.00
9949;DHT22;5013;51.840;8.276;2023-11-18T04:58:42;1.10;1.00
9949;DHT22;5013;51.840;8.276;2023-11-18T05:01:08;1.10;1.00
9949;DHT22;5013;51.840;8.276;2023-11-18T05:03:34;1.10;1.00
9949;DHT22;5013;51.840;8.276;2023-11-18T05:06:00;1.00;1.00
9949;DHT22;5013;51.840;8.276;2023-11-18T05:08:25;1.00;1.00
9949;DHT22;5013;51.840;8.276;2023-11-18T05:10:51;1.00;1.00
9949;DHT22;5013;51.840;8.276;2023-11-18T05:13:17;1.00;1.00
9949;DHT22;5013;51.840;8.276;2023-11-18T05:15:44;1.10;1.00
9949;DHT22;5013;51.840;8.276;2023-11-18T05:18:11;1.00;1.00
9949;DHT22;5013;51.840;8.276;2023-11-18T05:20:39;1.00;1.00
9949;DHT22;5013;51.840;8.276;2023-11-18T05:23:05;1.00;1.00
9949;DHT22;5013;51.840;8.276;2023-11-18T05:25:30;1.00;1.00
9949;DHT22;5013;51.840;8.276;2023-11-18T05:27:59;1.00;1.00
9949;DHT22;5013;51.840;8.276;2023-11-18T05:30:25;1.00;1.00
9949;DHT22;5013;51.840;8.276;2023-11-18T05:32:51;1.00;1.00
9949;DHT22;5013;51.840;8.276;2023-11-18T05:35:17;1.00;1.00
9949;DHT22;5013;51.840;8.276;2023-11-18T05:37:43;1.00;1.00
9949;DHT22;5013;51.840;8.276;2023-11-18T05:40:09;1.00;1.00
9949;DHT22;5013;51.840;8.276;2023-11-18T05:42:37;1.00;1.00
9949;DHT22;5013;51.840;8.276;2023-11-18T05:45:06;1.00;99.90
9949;DHT22;5013;51.840;8.276;2023-11-18T05:47:33;1.00;1.00
9949;DHT22;5013;51.840;8.276;2023-11-18T05:50:00;1.00;1.00
9949;DHT22;5013;51.840;8.276;2023-11-18T05:52:26;1.00;99.90
9949;DHT22;5013;51.840;8.276;2023-11-18T05:54:52;1.10;99.90
9949;DHT22;5013;51.840;8.276;2023-11-18T05:57:18;1.00;99.90
9949;DHT22;5013;51.840;8.276;2023-11-18T05:59:44;1.00;1.00
9949;DHT22;5013;51.840;8.276;2023-11-18T06:02:10;1.00;1.00
9949;DHT22;5013;51.840;8.276;2023-11-18T06:04:45;1.00;1.00
9949;DHT22;5013;51.840;8.276;2023-11-18T06:07:12;1.00;1.00
9949;DHT22;5013;51.840;8.276;2023-11-18T06:09:43;1.10;1.00
9949;DHT22;5013;51.840;8.276;2023-11-18T06:12:09;1.10;1.00
9949;DHT22;5013;51.840;8.276;2023-11-18T06:14:38;1.20;1.00
9949;DHT22;5013;51.840;8.276;2023-11-18T06:17:04;1.20;1.00
9949;DHT22;5013;51.840;8.276;2023-11-18T06:19:29;1.20;1.00
9949;DHT22;5013;51.840;8.276;2023-11-18T06:21:55;1.20;1.00
9949;DHT22;5013;51.840;8.276;2023-11-18T06:24:20;1.20;1.00
9949;DHT22;5013;51.840;8.276;2023-11-18T06:26:47;1.20;1.00
9949;DHT22;5013;51.840;8.276;2023-11-18T06:29:15;1.30;1.00
9949;DHT22;5013;51.840;8.276;2023-11-18T06:31:40;1.30;1.00
9949;DHT22;5013;51.840;8.276;2023-11-18T06:34:06;1.30;1.00
9949;DHT22;5013;51.840;8.276;2023-11-18T06:36:32;1.40;1.00
9949;DHT22;5013;51.840;8.276;2023-11-18T06:38:58;1.40;1.00
9949;DHT22;5013;51.840;8.276;2023-11-18T06:41:24;1.40;1.00
9949;DHT22;5013;51.840;8.276;2023-11-18T06:43:51;1.50;1.00
9949;DHT22;5013;51.840;8.276;2023-11-18T06:46:28;1.50;1.00
9949;DHT22;5013;51.840;8.276;2023-11-18T06:49:00;1.60;1.00
9949;DHT22;5013;51.840;8.276;2023-11-18T06:51:33;1.60;1.00
9949;DHT22;5013;51.840;8.276;2023-11-18T06:54:04;1.50;1.00
9949;DHT22;5013;51.840;8.276;2023-11-18T06:56:42;1.50;1.00
9949;DHT22;5013;51.840;8.276;2023-11-18T06:59:09;1.50;1.00
9949;DHT22;5013;51.840;8.276;2023-11-18T07:01:41;1.50;1.00
9949;DHT22;5013;51.840;8.276;2023-11-18T07:04:09;1.60;1.00
9949;DHT22;5013;51.840;8.276;2023-11-18T07:06:34;1.60;1.00
9949;DHT22;5013;51.840;8.276;2023-11-18T07:09:04;1.60;1.00
9949;DHT22;5013;51.840;8.276;2023-11-18T07:11:34;1.50;1.00
9949;DHT22;5013;51.840;8.276;2023-11-18T07:14:00;1.50;1.00
9949;DHT22;5013;51.840;8.276;2023-11-18T07:16:26;1.50;12.50
9949;DHT22;5013;51.840;8.276;2023-11-18T07:18:52;1.60;20.10
9949;DHT22;5013;51.840;8.276;2023-11-18T07:21:19;1.60;40.10
9949;DHT22;5013;51.840;8.276;2023-11-18T07:23:45;1.70;23.60
9949;DHT22;5013;51.840;8.276;2023-11-18T07:26:10;1.70;1.00
9949;DHT22;5013;51.840;8.276;2023-11-18T07:28:36;1.70;1.00
9949;DHT22;5013;51.840;8.276;2023-11-18T07:31:02;1.70;1.00
9949;DHT22;5013;51.840;8.276;2023-11-18T07:33:30;1.70;1.00
9949;DHT22;5013;51.840;8.276;2023-11-18T07:35:59;1.70;1.00
9949;DHT22;5013;51.840;8.276;2023-11-18T07:38:25;1.70;1.00
9949;DHT22;5013;51.840;8.276;2023-11-18T07:40:52;1.80;1.00
9949;DHT22;5013;51.840;8.276;2023-11-18T07:43:22;1.90;2.40
9949;DHT22;5013;51.840;8.276;2023-11-18T07:45:48;2.00;1.00
9949;DHT22;5013;51.840;8.276;2023-11-18T07:48:18;1.90;1.00
9949;DHT22;5013;51.840;8.276;2023-11-18T07:50:46;2.00;1.00
9949;DHT22;5013;51.840;8.276;2023-11-18T07:53:15;2.00;1.00
9949;DHT22;5013;51.840;8.276;2023-11-18T07:55:41;2.10;1.00
9949;DHT22;5013;51.840;8.276;2023-11-18T07:58:10;2.10;1.00
9949;DHT22;5013;51.840;8.276;2023-11-18T08:00:45;2.20;1.00
9949;DHT22;5013;51.840;8.276;2023-11-18T08:03:11;2.30;1.00
9949;DHT22;5013;51.840;8.276;2023-11-18T08:05:38;2.30;1.00
9949;DHT22;5013;51.840;8.276;2023-11-18T08:08:08;2.40;1.00
9949;DHT22;5013;51.840;8.276;2023-11-18T08:10:36;2.40;1.00
9949;DHT22;5013;51.840;8.276;2023-11-18T08:13:08;2.60;1.00
9949;DHT22;5013;51.840;8.276;2023-11-18T08:15:44;2.70;1.00
9949;DHT22;5013;51.840;8.276;2023-11-18T08:18:12;2.70;99.90
9949;DHT22;5013;51.840;8.276;2023-11-18T08:20:38;2.80;99.90
9949;DHT22;5013;51.840;8.276;2023-11-18T08:23:04;2.90;99.90
9949;DHT22;5013;51.840;8.276;2023-11-18T08:25:30;2.90;74.00
9949;DHT22;5013;51.840;8.276;2023-11-18T08:27:59;3.00;99.90
9949;DHT22;5013;51.840;8.276;2023-11-18T08:30:26;3.00;1.00
9949;DHT22;5013;51.840;8.276;2023-11-18T08:32:51;3.10;1.00
9949;DHT22;5013;51.840;8.276;2023-11-18T08:35:17;3.20;1.00
9949;DHT22;5013;51.840;8.276;2023-11-18T08:37:43;3.30;1.00
9949;DHT22;5013;51.840;8.276;2023-11-18T08:40:10;3.40;1.00
9949;DHT22;5013;51.840;8.276;2023-11-18T08:42:47;3.40;99.90
9949;DHT22;5013;51.840;8.276;2023-11-18T08:45:16;3.50;99.90
9949;DHT22;5013;51.840;8.276;2023-11-18T08:47:45;3.50;21.40
9949;DHT22;5013;51.840;8.276;2023-11-18T08:50:16;3.60;75.70
9949;DHT22;5013;51.840;8.276;2023-11-18T08:52:43;3.60;1.00
9949;DHT22;5013;51.840;8.276;2023-11-18T08:55:12;3.80;99.90
9949;DHT22;5013;51.840;8.276;2023-11-18T08:57:49;3.80;1.00
9949;DHT22;5013;51.840;8.276;2023-11-18T09:00:24;3.80;99.90
9949;DHT22;5013;51.840;8.276;2023-11-18T09:03:12;3.80;99.90
9949;DHT22;5013;51.840;8.276;2023-11-18T09:05:45;3.90;99.90
9949;DHT22;5013;51.840;8.276;2023-11-18T09:11:01;4.10;1.00
9949;DHT22;5013;51.840;8.276;2023-11-18T09:13:27;4.10;99.90
9949;DHT22;5013;51.840;8.276;2023-11-18T09:16:01;4.10;1.00
9949;DHT22;5013;51.840;8.276;2023-11-18T09:18:28;4.10;99.90
9949;DHT22;5013;51.840;8.276;2023-11-18T09:20:55;4.10;1.00
9949;DHT22;5013;51.840;8.276;2023-11-18T09:23:38;4.20;1.00
9949;DHT22;5013;51.840;8.276;2023-11-18T09:26:05;4.20;1.00
9949;DHT22;5013;51.840;8.276;2023-11-18T09:28:33;4.30;1.00
9949;DHT22;5013;51.840;8.276;2023-11-18T09:31:01;4.50;1.00
9949;DHT22;5013;51.840;8.276;2023-11-18T09:33:30;4.50;99.90
9949;DHT22;5013;51.840;8.276;2023-11-18T09:36:03;4.60;99.90
9949;DHT22;5013;51.840;8.276;2023-11-18T09:38:36;4.50;99.90
9949;DHT22;5013;51.840;8.276;2023-11-18T09:41:03;4.80;99.90
9949;DHT22;5013;51.840;8.276;2023-11-18T09:43:30;4.80;99.90
9949;DHT22;5013;51.840;8.276;2023-11-18T09:46:04;4.90;67.50
9949;DHT22;5013;51.840;8.276;2023-11-18T09:48:48;4.90;1.00
9949;DHT22;5013;51.840;8.276;2023-11-18T09:51:38;4.90;1.00
9949;DHT22;5013;51.840;8.276;2023-11-18T09:54:33;4.90;99.90
9949;DHT22;5013;51.840;8.276;2023-11-18T10:00:06;4.90;99.90
9949;DHT22;5013;51.840;8.276;2023-11-18T10:02:50;5.00;1.00
9949;DHT22;5013;51.840;8.276;2023-11-18T10:05:17;5.10;1.00
9949;DHT22;5013;51.840;8.276;2023-11-18T10:07:46;5.30;1.00
9949;DHT22;5013;51.840;8.276;2023-11-18T10:10:15;5.20;99.90
9949;DHT22;5013;51.840;8.276;2023-11-18T10:12:45;5.30;1.00
9949;DHT22;5013;51.840;8.276;2023-11-18T10:15:14;5.30;86.50
9949;DHT22;5013;51.840;8.276;2023-11-18T10:17:44;5.30;99.90
9949;DHT22;5013;51.840;8.276;2023-11-18T10:23:09;5.50;99.90
9949;DHT22;5013;51.840;8.276;2023-11-18T10:25:36;5.60;99.90
9949;DHT22;5013;51.840;8.276;2023-11-18T10:28:06;5.70;1.00
9949;DHT22;5013;51.840;8.276;2023-11-18T10:30:42;5.80;96.00
9949;DHT22;5013;51.840;8.276;2023-11-18T10:33:08;5.90;1.00
9949;DHT22;5013;51.840;8.276;2023-11-18T10:35:34;6.00;1.00
9949;DHT22;5013;51.840;8.276;2023-11-18T10:38:04;6.00;99.90
9949;DHT22;5013;51.840;8.276;2023-11-18T10:40:33;6.10;10.00
9949;DHT22;5013;51.840;8.276;2023-11-18T10:43:05;6.20;1.00
9949;DHT22;5013;51.840;8.276;2023-11-18T10:45:35;6.20;41.50
9949;DHT22;5013;51.840;8.276;2023-11-18T10:48:07;6.20;1.00
9949;DHT22;5013;51.840;8.276;2023-11-18T10:50:33;6.20;1.00
9949;DHT22;5013;51.840;8.276;2023-11-18T10:53:02;6.20;1.00
9949;DHT22;5013;51.840;8.276;2023-11-18T10:55:37;6.30;1.00
9949;DHT22;5013;51.840;8.276;2023-11-18T10:58:03;6.30;1.00
9949;DHT22;5013;51.840;8.276;2023-11-18T11:00:49;6.30;1.00
9949;DHT22;5013;51.840;8.276;2023-11-18T11:03:16;6.50;1.00
9949;DHT22;5013;51.840;8.276;2023-11-18T11:05:43;6.50;1.00
9949;DHT22;5013;51.840;8.276;2023-11-18T11:08:11;6.60;1.00
9949;DHT22;5013;51.840;8.276;2023-11-18T11:10:40;6.60;1.00
9949;DHT22;5013;51.840;8.276;2023-11-18T11:13:10;6.70;1.00
9949;DHT22;5013;51.840;8.276;2023-11-18T11:15:42;6.70;99.90
9949;DHT22;5013;51.840;8.276;2023-11-18T11:18:21;6.80;1.00
9949;DHT22;5013;51.840;8.276;2023-11-18T11:21:17;6.80;99.90
9949;DHT22;5013;51.840;8.276;2023-11-18T11:24:02;6.80;77.40
9949;DHT22;5013;51.840;8.276;2023-11-18T11:26:51;6.90;1.00
9949;DHT22;5013;51.840;8.276;2023-11-18T11:29:40;6.90;21.80
9949;DHT22;5013;51.840;8.276;2023-11-18T11:32:28;6.90;1.00
9949;DHT22;5013;51.840;8.276;2023-11-18T11:35:00;6.80;99.90
9949;DHT22;5013;51.840;8.276;2023-11-18T11:37:33;6.80;99.90
9949;DHT22;5013;51.840;8.276;2023-11-18T11:40:02;6.80;99.90
9949;DHT22;5013;51.840;8.276;2023-11-18T11:42:35;6.80;99.90
9949;DHT22;5013;51.840;8.276;2023-11-18T11:45:01;6.80;1.00
9949;DHT22;5013;51.840;8.276;2023-11-18T11:47:28;6.70;1.00
9949;DHT22;5013;51.840;8.276;2023-11-18T11:50:10;6.80;1.00
9949;DHT22;5013;51.840;8.276;2023-11-18T11:52:46;6.80;1.00
9949;DHT22;5013;51.840;8.276;2023-11-18T11:55:49;6.90;1.00
9949;DHT22;5013;51.840;8.276;2023-11-18T11:58:28;6.90;99.90
9949;DHT22;5013;51.840;8.276;2023-11-18T12:00:54;6.90;99.90
9949;DHT22;5013;51.840;8.276;2023-11-18T12:03:21;6.90;1.00
9949;DHT22;5013;51.840;8.276;2023-11-18T12:05:49;6.90;1.00
9949;DHT22;5013;51.840;8.276;2023-11-18T12:08:17;6.90;1.00
9949;DHT22;5013;51.840;8.276;2023-11-18T12:10:51;7.00;1.00
9949;DHT22;5013;51.840;8.276;2023-11-18T12:13:17;6.90;1.00
9949;DHT22;5013;51.840;8.276;2023-11-18T12:15:48;7.00;1.00
9949;DHT22;5013;51.840;8.276;2023-11-18T12:18:22;7.00;1.00
9949;DHT22;5013;51.840;8.276;2023-11-18T12:20:49;7.00;99.90
9949;DHT22;5013;51.840;8.276;2023-11-18T12:23:23;7.00;1.00
9949;DHT22;5013;51.840;8.276;2023-11-18T12:25:54;7.00;1.00
9949;DHT22;5013;51.840;8.276;2023-11-18T12:28:33;7.00;78.20
9949;DHT22;5013;51.840;8.276;2023-11-18T12:31:04;7.00;99.90
9949;DHT22;5013;51.840;8.276;2023-11-18T12:34:00;7.10;99.90
9949;DHT22;5013;51.840;8.276;2023-11-18T12:41:39;7.20;99.90
9949;DHT22;5013;51.840;8.276;2023-11-18T12:47:02;7.10;1.00
9949;DHT22;5013;51.840;8.276;2023-11-18T12:49:44;7.10;99.90
9949;DHT22;5013;51.840;8.276;2023-11-18T12:52:11;7.10;99.90
9949;DHT22;5013;51.840;8.276;2023-11-18T12:54:40;7.20;1.00
9949;DHT22;5013;51.840;8.276;2023-11-18T12:57:10;7.20;14.60
9949;DHT22;5013;51.840;8.276;2023-11-18T12:59:40;7.20;18.80
9949;DHT22;5013;51.840;8.276;2023-11-18T13:02:10;7.10;99.90
9949;DHT22;5013;51.840;8.276;2023-11-18T13:04:43;7.10;1.00
9949;DHT22;5013;51.840;8.276;2023-11-18T13:07:16;7.10;1.00
9949;DHT22;5013;51.840;8.276;2023-11-18T13:09:47;7.20;1.00
9949;DHT22;5013;51.840;8.276;2023-11-18T13:12:13;7.20;1.00
9949;DHT22;5013;51.840;8.276;2023-11-18T13:14:41;7.20;1.00
9949;DHT22;5013;51.840;8.276;2023-11-18T13:17:12;7.20;1.00
9949;DHT22;5013;51.840;8.276;2023-11-18T13:19:39;7.30;1.00
9949;DHT22;5013;51.840;8.276;2023-11-18T13:22:06;7.30;99.90
9949;DHT22;5013;51.840;8.276;2023-11-18T13:24:39;7.30;1.00
9949;DHT22;5013;51.840;8.276;2023-11-18T13:27:06;7.40;1.00
9949;DHT22;5013;51.840;8.276;2023-11-18T13:29:34;7.40;1.00
9949;DHT22;5013;51.840;8.276;2023-11-18T13:32:00;7.50;99.90
9949;DHT22;5013;51.840;8.276;2023-11-18T13:34:39;7.40;72.30
9949;DHT22;5013;51.840;8.276;2023-11-18T13:37:11;7.40;99.90
9949;DHT22;5013;51.840;8.276;2023-11-18T13:39:42;7.40;1.00
9949;DHT22;5013;51.840;8.276;2023-11-18T13:42:23;7.30;1.00
9949;DHT22;5013;51.840;8.276;2023-11-18T13:44:49;7.40;99.90
9949;DHT22;5013;51.840;8.276;2023-11-18T13:47:22;7.40;1.00
9949;DHT22;5013;51.840;8.276;2023-11-18T13:49:53;7.30;1.00
9949;DHT22;5013;51.840;8.276;2023-11-18T13:52:19;7.30;54.30
9949;DHT22;5013;51.840;8.276;2023-11-18T13:54:47;7.30;99.90
9949;DHT22;5013;51.840;8.276;2023-11-18T13:57:13;7.30;1.00
9949;DHT22;5013;51.840;8.276;2023-11-18T13:59:39;7.30;1.00
9949;DHT22;5013;51.840;8.276;2023-11-18T14:02:05;7.20;20.80
9949;DHT22;5013;51.840;8.276;2023-11-18T14:04:33;7.20;99.90
9949;DHT22;5013;51.840;8.276;2023-11-18T14:07:03;7.10;99.90
9949;DHT22;5013;51.840;8.276;2023-11-18T14:09:31;7.00;1.00
9949;DHT22;5013;51.840;8.276;2023-11-18T14:11:58;7.00;17.40
9949;DHT22;5013;51.840;8.276;2023-11-18T14:14:24;7.00;99.90
9949;DHT22;5013;51.840;8.276;2023-11-18T14:16:51;7.00;1.00
9949;DHT22;5013;51.840;8.276;2023-11-18T14:19:23;6.90;1.00
9949;DHT22;5013;51.840;8.276;2023-11-18T14:21:53;6.80;1.00
9949;DHT22;5013;51.840;8.276;2023-11-18T14:24:19;6.80;1.00
9949;DHT22;5013;51.840;8.276;2023-11-18T14:26:45;6.80;1.00
9949;DHT22;5013;51.840;8.276;2023-11-18T14:29:11;6.80;84.60
9949;DHT22;5013;51.840;8.276;2023-11-18T14:31:39;6.80;99.90
9949;DHT22;5013;51.840;8.276;2023-11-18T14:34:05;6.80;99.90
9949;DHT22;5013;51.840;8.276;2023-11-18T14:36:30;6.80;99.90
9949;DHT22;5013;51.840;8.276;2023-11-18T14:38:56;6.70;99.90
9949;DHT22;5013;51.840;8.276;2023-11-18T14:41:23;6.80;99.90
9949;DHT22;5013;51.840;8.276;2023-11-18T14:43:52;6.70;99.90
9949;DHT22;5013;51.840;8.276;2023-11-18T14:46:18;6.80;99.90
9949;DHT22;5013;51.840;8.276;2023-11-18T14:48:44;6.80;99.90
9949;DHT22;5013;51.840;8.276;2023-11-18T14:51:10;6.80;99.90
9949;DHT22;5013;51.840;8.276;2023-11-18T14:53:36;6.80;99.90
9949;DHT22;5013;51.840;8.276;2023-11-18T14:56:02;6.70;99.90
9949;DHT22;5013;51.840;8.276;2023-11-18T14:58:30;6.70;99.90
9949;DHT22;5013;51.840;8.276;2023-11-18T15:00:55;6.70;99.90
9949;DHT22;5013;51.840;8.276;2023-11-18T15:03:22;6.60;99.90
9949;DHT22;5013;51.840;8.276;2023-11-18T15:05:48;6.60;99.90
9949;DHT22;5013;51.840;8.276;2023-11-18T15:08:14;6.60;99.90
9949;DHT22;5013;51.840;8.276;2023-11-18T15:10:41;6.60;99.90
9949;DHT22;5013;51.840;8.276;2023-11-18T15:13:12;6.60;99.90
9949;DHT22;5013;51.840;8.276;2023-11-18T15:15:41;6.50;99.90
9949;DHT22;5013;51.840;8.276;2023-11-18T15:18:07;6.60;99.90
9949;DHT22;5013;51.840;8.276;2023-11-18T15:20:37;6.60;99.90
9949;DHT22;5013;51.840;8.276;2023-11-18T15:23:11;6.60;99.90
9949;DHT22;5013;51.840;8.276;2023-11-18T15:25:37;6.50;99.90
9949;DHT22;5013;51.840;8.276;2023-11-18T15:28:02;6.50;99.90
9949;DHT22;5013;51.840;8.276;2023-11-18T15:30:29;6.50;99.90
9949;DHT22;5013;51.840;8.276;2023-11-18T15:32:55;6.40;99.90
9949;DHT22;5013;51.840;8.276;2023-11-18T15:35:22;6.40;99.90
9949;DHT22;5013;51.840;8.276;2023-11-18T15:37:48;6.40;99.90
9949;DHT22;5013;51.840;8.276;2023-11-18T15:40:15;6.40;99.90
9949;DHT22;5013;51.840;8.276;2023-11-18T15:42:45;6.30;99.90
9949;DHT22;5013;51.840;8.276;2023-11-18T15:45:15;6.30;99.90
9949;DHT22;5013;51.840;8.276;2023-11-18T15:47:42;6.30;99.90
9949;DHT22;5013;51.840;8.276;2023-11-18T15:50:12;6.30;99.90
9949;DHT22;5013;51.840;8.276;2023-11-18T15:52:48;6.30;99.90
9949;DHT22;5013;51.840;8.276;2023-11-18T15:55:15;6.40;99.90
9949;DHT22;5013;51.840;8.276;2023-11-18T15:57:41;6.30;99.90
9949;DHT22;5013;51.840;8.276;2023-11-18T16:00:09;6.30;99.90
9949;DHT22;5013;51.840;8.276;2023-11-18T16:02:49;6.20;99.90
9949;DHT22;5013;51.840;8.276;2023-11-18T16:05:16;6.20;99.90
9949;DHT22;5013;51.840;8.276;2023-11-18T16:07:47;6.20;99.90
9949;DHT22;5013;51.840;8.276;2023-11-18T16:10:13;6.20;99.90
9949;DHT22;5013;51.840;8.276;2023-11-18T16:13:00;6.20;99.90
9949;DHT22;5013;51.840;8.276;2023-11-18T16:15:27;6.10;99.90
9949;DHT22;5013;51.840;8.276;2023-11-18T16:17:54;6.10;99.90
9949;DHT22;5013;51.840;8.276;2023-11-18T16:20:21;6.00;99.90
9949;DHT22;5013;51.840;8.276;2023-11-18T16:22:48;6.00;99.90
9949;DHT22;5013;51.840;8.276;2023-11-18T16:27:49;6.00;99.90
9949;DHT22;5013;51.840;8.276;2023-11-18T16:30:15;6.00;99.90
9949;DHT22;5013;51.840;8.276;2023-11-18T16:32:42;6.00;99.90
9949;DHT22;5013;51.840;8.276;2023-11-18T16:35:08;6.00;99.90
9949;DHT22;5013;51.840;8.276;2023-11-18T16:37:38;5.90;99.90
9949;DHT22;5013;51.840;8.276;2023-11-18T16:40:09;5.90;99.90
9949;DHT22;5013;51.840;8.276;2023-11-18T16:42:42;5.90;99.90
9949;DHT22;5013;51.840;8.276;2023-11-18T16:45:08;5.90;99.90
9949;DHT22;5013;51.840;8.276;2023-11-18T16:47:40;5.90;99.90
9949;DHT22;5013;51.840;8.276;2023-11-18T16:50:07;5.80;99.90
9949;DHT22;5013;51.840;8.276;2023-11-18T16:52:34;5.80;99.90
9949;DHT22;5013;51.840;8.276;2023-11-18T16:55:00;5.80;99.90
9949;DHT22;5013;51.840;8.276;2023-11-18T16:57:26;5.80;99.90
9949;DHT22;5013;51.840;8.276;2023-11-18T16:59:55;5.80;99.90